Aérodrome :
LOGIN :

S'inscrire | Disclaimer

   EN    FR    IT 

 










Légende :    VFR   VFR Marginal   IFR   IFR Intensif   IFR Très Intensif
Visi : 
Plafond : 
>= 8 km
>= 3000ft
5 à 8 km
1000 à 3000 ft
1500m à 5 km
500 à 1000 ft
800 à 1500m
200 à 500 ft
< 800m
< 200 ft
Symboles :   Orages  Brouillard  Fortes neiges  Fortes précipitations  Vent > 20 kt
SIGMETs :   Divers  Orages  Givrage  Turbulence  Onde Orograph.  Cendres Volcan.






- Altitude de l'aérodrome : 141 ft
- Code IATA : SKS


EKSP - Srydstrup Vojens

DERNIER METAR :
  • 020950Z 12004KT 9999 OVC022 04/02 Q1020 NOSIG

METARs EXPIRÉS :
  • 020920Z 13004KT 090V150 9000 FEW022 BKN030 04/02 Q1020 NOSIG
  • 020850Z 07002KT 9000 FEW022 BKN031 04/02 Q1020 NOSIG
  • 020820Z 12001KT 9999 FEW024 BKN030 04/02 Q1021 NOSIG
  • 020750Z 11001KT 9999 FEW024 BKN030 03/02 Q1021 NOSIG
  • 020720Z 13003KT 9999 OVC027 04/02 Q1021 NOSIG

TAF TAF EKSP
Valide du 02 à 09h jusqu'au 03 à 09h UTC


020828Z 0209/0309 12005KT 8000 FEW008 BKN015
TEMPO 0209/0215 4000 BR -RADZ BKN008
BECMG 0210/0213 17005KT
TEMPO 0215/0223 2000 -RADZ BR BKN004
BECMG 0217/0220 17010KT
TEMPO 0223/0309 2000 -RASN BR BKN004



MET'MAP, la Météo Aéronautique d'un coup d'oeil ! - Copyright ORBIFLY Décembre 2007 - Disclaimer

ORBIFLY MET'MAP TEAM :

Programmation & Développement : Alexandra Zaïnal
Sur une idée originale de : Baudouin d'Aumeries
Assistance à la programmation : Marc-Olivier Méhu
Soutien technique & logistique : Manuel Goepfert

Contact : metmap@orbifly.com




SOURCES & CREDITS :

   NOAA